sensor_id;sensor_type;location;lat;lon;timestamp;pressure;altitude;pressure_sealevel;temperature;humidity
18819;BME280;9537;45.594;9.294;2023-11-21T00:00:47;99081.03;;;9.76;93.79
18819;BME280;9537;45.594;9.294;2023-11-21T00:01:49;99077.38;;;9.77;93.92
18819;BME280;9537;45.594;9.294;2023-11-21T00:02:50;99077.38;;;9.77;93.70
18819;BME280;9537;45.594;9.294;2023-11-21T00:03:51;99078.19;;;9.78;93.65
18819;BME280;9537;45.594;9.294;2023-11-21T00:04:55;99079.00;;;9.78;93.82
18819;BME280;9537;45.594;9.294;2023-11-21T00:05:56;99075.56;;;9.78;93.90
18819;BME280;9537;45.594;9.294;2023-11-21T00:06:57;99079.00;;;9.78;93.83
18819;BME280;9537;45.594;9.294;2023-11-21T00:07:59;99082.50;;;9.79;93.94
18819;BME280;9537;45.594;9.294;2023-11-21T00:09:00;99086.94;;;9.78;93.95
18819;BME280;9537;45.594;9.294;2023-11-21T00:10:02;99085.13;;;9.79;93.85
18819;BME280;9537;45.594;9.294;2023-11-21T00:11:04;99082.50;;;9.79;94.36
18819;BME280;9537;45.594;9.294;2023-11-21T00:12:07;99090.41;;;9.79;94.16
18819;BME280;9537;45.594;9.294;2023-11-21T00:13:10;99089.56;;;9.78;94.17
18819;BME280;9537;45.594;9.294;2023-11-21T00:14:12;99086.94;;;9.78;94.30
18819;BME280;9537;45.594;9.294;2023-11-21T00:15:18;99081.66;;;9.78;94.16
18819;BME280;9537;45.594;9.294;2023-11-21T00:16:20;99083.31;;;9.79;94.33
18819;BME280;9537;45.594;9.294;2023-11-21T00:17:22;99075.41;;;9.79;94.15
18819;BME280;9537;45.594;9.294;2023-11-21T00:18:24;99072.75;;;9.79;94.02
18819;BME280;9537;45.594;9.294;2023-11-21T00:19:25;99070.13;;;9.79;93.80
18819;BME280;9537;45.594;9.294;2023-11-21T00:20:27;99078.03;;;9.79;93.72
18819;BME280;9537;45.594;9.294;2023-11-21T00:21:28;99075.41;;;9.79;93.70
18819;BME280;9537;45.594;9.294;2023-11-21T00:22:29;99068.47;;;9.78;93.63
18819;BME280;9537;45.594;9.294;2023-11-21T00:23:30;99062.22;;;9.79;93.77
18819;BME280;9537;45.594;9.294;2023-11-21T00:24:31;99068.28;;;9.80;93.66
18819;BME280;9537;45.594;9.294;2023-11-21T00:25:33;99066.47;;;9.80;93.46
18819;BME280;9537;45.594;9.294;2023-11-21T00:26:35;99067.28;;;9.81;93.27
18819;BME280;9537;45.594;9.294;2023-11-21T00:27:38;99067.28;;;9.81;93.39
18819;BME280;9537;45.594;9.294;2023-11-21T00:28:39;99066.47;;;9.80;93.46
18819;BME280;9537;45.594;9.294;2023-11-21T00:29:40;99072.56;;;9.81;93.42
18819;BME280;9537;45.594;9.294;2023-11-21T00:30:41;99070.72;;;9.81;93.34
18819;BME280;9537;45.594;9.294;2023-11-21T00:31:43;99070.72;;;9.81;93.35
18819;BME280;9537;45.594;9.294;2023-11-21T00:32:43;99070.72;;;9.81;93.30
18819;BME280;9537;45.594;9.294;2023-11-21T00:33:45;99063.66;;;9.82;93.38
18819;BME280;9537;45.594;9.294;2023-11-21T00:34:47;99072.56;;;9.81;93.44
18819;BME280;9537;45.594;9.294;2023-11-21T00:35:48;99076.00;;;9.81;93.80
18819;BME280;9537;45.594;9.294;2023-11-21T00:36:49;99077.84;;;9.81;93.29
18819;BME280;9537;45.594;9.294;2023-11-21T00:37:50;99079.50;;;9.82;93.35
18819;BME280;9537;45.594;9.294;2023-11-21T00:38:52;99073.38;;;9.81;93.42
18819;BME280;9537;45.594;9.294;2023-11-21T00:39:53;99078.66;;;9.81;93.89
18819;BME280;9537;45.594;9.294;2023-11-21T00:40:54;99072.38;;;9.82;93.51
18819;BME280;9537;45.594;9.294;2023-11-21T00:42:00;99068.09;;;9.81;93.42
18819;BME280;9537;45.594;9.294;2023-11-21T00:43:00;99059.19;;;9.82;93.66
18819;BME280;9537;45.594;9.294;2023-11-21T00:44:02;99067.28;;;9.81;93.56
18819;BME280;9537;45.594;9.294;2023-11-21T00:45:04;99060.19;;;9.81;93.39
18819;BME280;9537;45.594;9.294;2023-11-21T00:46:06;99059.38;;;9.81;93.91
18819;BME280;9537;45.594;9.294;2023-11-21T00:47:08;99056.72;;;9.81;93.77
18819;BME280;9537;45.594;9.294;2023-11-21T00:48:09;99062.00;;;9.81;93.83
18819;BME280;9537;45.594;9.294;2023-11-21T00:49:10;99062.81;;;9.81;93.83
18819;BME280;9537;45.594;9.294;2023-11-21T00:50:11;99050.66;;;9.80;93.84
18819;BME280;9537;45.594;9.294;2023-11-21T00:51:13;99059.38;;;9.81;93.55
18819;BME280;9537;45.594;9.294;2023-11-21T00:52:13;99055.09;;;9.80;93.58
18819;BME280;9537;45.594;9.294;2023-11-21T00:53:14;99058.38;;;9.82;93.59
18819;BME280;9537;45.594;9.294;2023-11-21T00:54:17;99052.47;;;9.80;93.75
18819;BME280;9537;45.594;9.294;2023-11-21T00:55:18;99042.72;;;9.80;93.67
18819;BME280;9537;45.594;9.294;2023-11-21T00:56:19;99055.09;;;9.80;93.75
18819;BME280;9537;45.594;9.294;2023-11-21T00:57:22;99050.66;;;9.80;93.81
18819;BME280;9537;45.594;9.294;2023-11-21T00:58:22;99049.84;;;9.80;93.88
18819;BME280;9537;45.594;9.294;2023-11-21T00:59:24;99052.28;;;9.81;93.80
18819;BME280;9537;45.594;9.294;2023-11-21T01:00:25;99052.28;;;9.81;93.54
18819;BME280;9537;45.594;9.294;2023-11-21T01:01:27;99051.47;;;9.81;93.56
18819;BME280;9537;45.594;9.294;2023-11-21T01:02:28;99052.28;;;9.81;93.55
18819;BME280;9537;45.594;9.294;2023-11-21T01:03:30;99059.38;;;9.81;93.33
18819;BME280;9537;45.594;9.294;2023-11-21T01:04:30;99047.19;;;9.80;93.16
18819;BME280;9537;45.594;9.294;2023-11-21T01:05:33;99052.47;;;9.80;92.88
18819;BME280;9537;45.594;9.294;2023-11-21T01:06:34;99053.47;;;9.79;92.95
18819;BME280;9537;45.594;9.294;2023-11-21T01:07:36;99053.47;;;9.79;92.94
18819;BME280;9537;45.594;9.294;2023-11-21T01:08:37;99049.03;;;9.79;92.60
18819;BME280;9537;45.594;9.294;2023-11-21T01:09:39;99047.19;;;9.80;92.91
18819;BME280;9537;45.594;9.294;2023-11-21T01:10:40;99046.38;;;9.79;92.59
18819;BME280;9537;45.594;9.294;2023-11-21T01:11:41;99044.56;;;9.80;92.64
18819;BME280;9537;45.594;9.294;2023-11-21T01:12:45;99044.56;;;9.80;92.73
18819;BME280;9537;45.594;9.294;2023-11-21T01:13:46;99050.66;;;9.80;92.66
18819;BME280;9537;45.594;9.294;2023-11-21T01:14:47;99048.00;;;9.80;92.67
18819;BME280;9537;45.594;9.294;2023-11-21T01:15:49;99046.19;;;9.81;92.65
18819;BME280;9537;45.594;9.294;2023-11-21T01:16:50;99041.91;;;9.80;92.62
18819;BME280;9537;45.594;9.294;2023-11-21T01:17:52;99045.38;;;9.80;92.38
18819;BME280;9537;45.594;9.294;2023-11-21T01:18:53;99047.00;;;9.81;92.59
18819;BME280;9537;45.594;9.294;2023-11-21T01:19:54;99042.72;;;9.80;92.61
18819;BME280;9537;45.594;9.294;2023-11-21T01:20:58;99039.28;;;9.80;92.75
18819;BME280;9537;45.594;9.294;2023-11-21T01:22:01;99048.00;;;9.80;92.76
18819;BME280;9537;45.594;9.294;2023-11-21T01:23:01;99046.19;;;9.81;92.95
18819;BME280;9537;45.594;9.294;2023-11-21T01:24:04;99041.72;;;9.81;93.09
18819;BME280;9537;45.594;9.294;2023-11-21T01:25:07;99043.53;;;9.81;92.91
18819;BME280;9537;45.594;9.294;2023-11-21T01:26:11;99037.47;;;9.80;92.93
18819;BME280;9537;45.594;9.294;2023-11-21T01:27:12;99033.00;;;9.81;93.16
18819;BME280;9537;45.594;9.294;2023-11-21T01:28:15;99034.66;;;9.82;93.18
18819;BME280;9537;45.594;9.294;2023-11-21T01:29:16;99029.53;;;9.80;93.21
18819;BME280;9537;45.594;9.294;2023-11-21T01:30:18;99028.53;;;9.81;93.06
18819;BME280;9537;45.594;9.294;2023-11-21T01:31:19;99027.72;;;9.81;93.10
18819;BME280;9537;45.594;9.294;2023-11-21T01:32:21;99029.53;;;9.80;92.85
18819;BME280;9537;45.594;9.294;2023-11-21T01:33:22;99028.53;;;9.81;92.71
18819;BME280;9537;45.594;9.294;2023-11-21T01:34:27;99028.53;;;9.81;92.71
18819;BME280;9537;45.594;9.294;2023-11-21T01:35:29;99021.63;;;9.80;92.35
18819;BME280;9537;45.594;9.294;2023-11-21T01:36:31;99021.63;;;9.80;92.39
18819;BME280;9537;45.594;9.294;2023-11-21T01:37:32;99015.34;;;9.81;92.21
18819;BME280;9537;45.594;9.294;2023-11-21T01:38:35;99012.72;;;9.81;92.20
18819;BME280;9537;45.594;9.294;2023-11-21T01:39:35;99024.09;;;9.82;91.96
18819;BME280;9537;45.594;9.294;2023-11-21T01:40:41;99012.72;;;9.81;91.90
18819;BME280;9537;45.594;9.294;2023-11-21T01:41:42;99019.81;;;9.81;91.70
18819;BME280;9537;45.594;9.294;2023-11-21T01:42:45;99019.81;;;9.81;91.81
18819;BME280;9537;45.594;9.294;2023-11-21T01:43:51;99009.25;;;9.81;91.80
18819;BME280;9537;45.594;9.294;2023-11-21T01:44:53;99010.91;;;9.82;91.74
18819;BME280;9537;45.594;9.294;2023-11-21T01:45:55;99019.81;;;9.81;91.48
18819;BME280;9537;45.594;9.294;2023-11-21T01:46:57;99009.09;;;9.82;91.32
18819;BME280;9537;45.594;9.294;2023-11-21T01:47:59;99011.72;;;9.82;91.46
18819;BME280;9537;45.594;9.294;2023-11-21T01:49:01;99009.09;;;9.82;91.34
18819;BME280;9537;45.594;9.294;2023-11-21T01:50:02;99012.72;;;9.81;91.24
18819;BME280;9537;45.594;9.294;2023-11-21T01:51:05;99009.09;;;9.82;91.33
18819;BME280;9537;45.594;9.294;2023-11-21T01:52:07;99006.25;;;9.84;90.83
18819;BME280;9537;45.594;9.294;2023-11-21T01:53:10;99000.97;;;9.84;90.98
18819;BME280;9537;45.594;9.294;2023-11-21T01:54:13;99003.81;;;9.82;91.01
18819;BME280;9537;45.594;9.294;2023-11-21T01:55:16;99007.28;;;9.83;91.08
18819;BME280;9537;45.594;9.294;2023-11-21T01:56:19;99002.81;;;9.83;91.07
18819;BME280;9537;45.594;9.294;2023-11-21T01:57:21;99002.81;;;9.83;91.42
18819;BME280;9537;45.594;9.294;2023-11-21T01:58:23;99004.63;;;9.83;91.48
18819;BME280;9537;45.594;9.294;2023-11-21T01:59:26;99001.19;;;9.82;91.35
18819;BME280;9537;45.594;9.294;2023-11-21T02:00:29;99008.09;;;9.83;91.18
18819;BME280;9537;45.594;9.294;2023-11-21T02:01:29;99002.00;;;9.83;91.43
18819;BME280;9537;45.594;9.294;2023-11-21T02:02:32;98998.34;;;9.84;91.23
18819;BME280;9537;45.594;9.294;2023-11-21T02:03:34;99002.63;;;9.85;91.59
18819;BME280;9537;45.594;9.294;2023-11-21T02:04:35;99007.09;;;9.84;92.04
18819;BME280;9537;45.594;9.294;2023-11-21T02:05:37;98999.19;;;9.84;91.78
18819;BME280;9537;45.594;9.294;2023-11-21T02:06:38;99004.47;;;9.84;92.05
18819;BME280;9537;45.594;9.294;2023-11-21T02:07:41;99000.16;;;9.83;92.13
18819;BME280;9537;45.594;9.294;2023-11-21T02:08:43;98999.19;;;9.84;92.03
18819;BME280;9537;45.594;9.294;2023-11-21T02:09:45;98995.69;;;9.84;92.15
18819;BME280;9537;45.594;9.294;2023-11-21T02:10:45;98995.69;;;9.84;92.13
18819;BME280;9537;45.594;9.294;2023-11-21T02:11:48;98998.34;;;9.84;92.18
18819;BME280;9537;45.594;9.294;2023-11-21T02:12:50;98994.91;;;9.83;92.20
18819;BME280;9537;45.594;9.294;2023-11-21T02:13:50;98993.91;;;9.84;92.32
18819;BME280;9537;45.594;9.294;2023-11-21T02:14:55;98988.63;;;9.84;92.38
18819;BME280;9537;45.594;9.294;2023-11-21T02:15:56;98989.44;;;9.85;92.15
18819;BME280;9537;45.594;9.294;2023-11-21T02:16:58;98989.44;;;9.85;92.24
18819;BME280;9537;45.594;9.294;2023-11-21T02:17:59;98990.25;;;9.85;92.26
18819;BME280;9537;45.594;9.294;2023-11-21T02:19:01;98988.44;;;9.86;92.17
18819;BME280;9537;45.594;9.294;2023-11-21T02:20:05;98987.63;;;9.85;92.55
18819;BME280;9537;45.594;9.294;2023-11-21T02:21:07;98984.97;;;9.85;92.48
18819;BME280;9537;45.594;9.294;2023-11-21T02:22:10;98983.97;;;9.86;92.23
18819;BME280;9537;45.594;9.294;2023-11-21T02:23:13;98983.16;;;9.86;92.54
18819;BME280;9537;45.594;9.294;2023-11-21T02:24:15;98981.34;;;9.86;92.48
18819;BME280;9537;45.594;9.294;2023-11-21T02:25:18;98986.59;;;9.86;92.67
18819;BME280;9537;45.594;9.294;2023-11-21T02:26:18;98982.34;;;9.85;92.85
18819;BME280;9537;45.594;9.294;2023-11-21T02:27:20;98982.16;;;9.87;92.79
18819;BME280;9537;45.594;9.294;2023-11-21T02:28:23;98974.44;;;9.85;92.73
18819;BME280;9537;45.594;9.294;2023-11-21T02:29:27;98976.06;;;9.86;92.88
18819;BME280;9537;45.594;9.294;2023-11-21T02:30:28;98969.16;;;9.85;92.97
18819;BME280;9537;45.594;9.294;2023-11-21T02:31:32;98971.59;;;9.87;92.66
18819;BME280;9537;45.594;9.294;2023-11-21T02:32:33;98965.50;;;9.86;93.13
18819;BME280;9537;45.594;9.294;2023-11-21T02:33:40;98973.41;;;9.86;92.97
18819;BME280;9537;45.594;9.294;2023-11-21T02:34:41;98965.50;;;9.86;93.18
18819;BME280;9537;45.594;9.294;2023-11-21T02:35:44;98969.97;;;9.86;93.42
18819;BME280;9537;45.594;9.294;2023-11-21T02:36:45;98961.25;;;9.85;93.36
18819;BME280;9537;45.594;9.294;2023-11-21T02:37:48;98965.50;;;9.86;93.32
18819;BME280;9537;45.594;9.294;2023-11-21T02:38:50;98970.78;;;9.86;93.07
18819;BME280;9537;45.594;9.294;2023-11-21T02:39:52;98967.16;;;9.87;93.39
18819;BME280;9537;45.594;9.294;2023-11-21T02:40:53;98972.44;;;9.87;93.25
18819;BME280;9537;45.594;9.294;2023-11-21T02:41:55;98959.25;;;9.87;93.20
18819;BME280;9537;45.594;9.294;2023-11-21T02:42:55;98964.53;;;9.87;93.39
18819;BME280;9537;45.594;9.294;2023-11-21T02:43:59;98966.16;;;9.88;93.47
18819;BME280;9537;45.594;9.294;2023-11-21T02:45:00;98963.50;;;9.88;93.69
18819;BME280;9537;45.594;9.294;2023-11-21T02:46:00;98966.16;;;9.88;93.47
18819;BME280;9537;45.594;9.294;2023-11-21T02:47:02;98973.06;;;9.89;93.76
18819;BME280;9537;45.594;9.294;2023-11-21T02:48:04;98966.16;;;9.88;93.30
18819;BME280;9537;45.594;9.294;2023-11-21T02:49:08;98962.50;;;9.89;93.38
18819;BME280;9537;45.594;9.294;2023-11-21T02:50:10;98964.16;;;9.90;93.34
18819;BME280;9537;45.594;9.294;2023-11-21T02:51:11;98960.66;;;9.90;93.55
18819;BME280;9537;45.594;9.294;2023-11-21T02:52:13;98958.88;;;9.90;93.94
18819;BME280;9537;45.594;9.294;2023-11-21T02:53:14;98965.94;;;9.90;93.98
18819;BME280;9537;45.594;9.294;2023-11-21T02:54:17;98966.78;;;9.90;93.91
18819;BME280;9537;45.594;9.294;2023-11-21T02:55:18;98968.41;;;9.91;94.01
18819;BME280;9537;45.594;9.294;2023-11-21T02:56:18;98963.13;;;9.91;94.01
18819;BME280;9537;45.594;9.294;2023-11-21T02:57:20;98965.78;;;9.91;94.04
18819;BME280;9537;45.594;9.294;2023-11-21T02:58:21;98969.22;;;9.92;93.90
18819;BME280;9537;45.594;9.294;2023-11-21T02:59:23;98971.06;;;9.91;94.15
18819;BME280;9537;45.594;9.294;2023-11-21T03:00:24;98965.78;;;9.91;94.11
18819;BME280;9537;45.594;9.294;2023-11-21T03:01:27;98972.69;;;9.92;94.03
18819;BME280;9537;45.594;9.294;2023-11-21T03:02:29;98966.59;;;9.92;94.28
18819;BME280;9537;45.594;9.294;2023-11-21T03:03:29;98963.94;;;9.92;94.18
18819;BME280;9537;45.594;9.294;2023-11-21T03:04:31;98962.13;;;9.92;94.47
18819;BME280;9537;45.594;9.294;2023-11-21T03:05:32;98970.88;;;9.93;94.16
18819;BME280;9537;45.594;9.294;2023-11-21T03:06:35;98967.41;;;9.92;94.21
18819;BME280;9537;45.594;9.294;2023-11-21T03:07:37;98968.41;;;9.91;94.26
18819;BME280;9537;45.594;9.294;2023-11-21T03:08:37;98970.03;;;9.92;94.25
18819;BME280;9537;45.594;9.294;2023-11-21T03:09:40;98971.69;;;9.93;94.17
18819;BME280;9537;45.594;9.294;2023-11-21T03:10:41;98971.69;;;9.93;93.96
18819;BME280;9537;45.594;9.294;2023-11-21T03:11:43;98972.69;;;9.92;94.08
18819;BME280;9537;45.594;9.294;2023-11-21T03:12:44;98976.16;;;9.93;94.16
18819;BME280;9537;45.594;9.294;2023-11-21T03:13:45;98973.53;;;9.93;94.34
18819;BME280;9537;45.594;9.294;2023-11-21T03:14:46;98971.69;;;9.93;94.39
18819;BME280;9537;45.594;9.294;2023-11-21T03:15:48;98971.88;;;9.92;94.74
18819;BME280;9537;45.594;9.294;2023-11-21T03:16:49;98977.13;;;9.92;94.90
18819;BME280;9537;45.594;9.294;2023-11-21T03:17:51;98966.78;;;9.90;95.13
18819;BME280;9537;45.594;9.294;2023-11-21T03:18:52;98978.97;;;9.91;95.55
18819;BME280;9537;45.594;9.294;2023-11-21T03:19:53;98971.22;;;9.90;96.58
18819;BME280;9537;45.594;9.294;2023-11-21T03:20:55;98976.31;;;9.91;97.19
18819;BME280;9537;45.594;9.294;2023-11-21T03:21:56;98982.41;;;9.92;97.55
18819;BME280;9537;45.594;9.294;2023-11-21T03:22:58;98977.72;;;9.87;98.53
18819;BME280;9537;45.594;9.294;2023-11-21T03:24:00;98976.69;;;9.88;98.58
18819;BME280;9537;45.594;9.294;2023-11-21T03:25:04;98969.81;;;9.87;98.70
18819;BME280;9537;45.594;9.294;2023-11-21T03:26:05;98978.91;;;9.85;98.94
18819;BME280;9537;45.594;9.294;2023-11-21T03:27:08;98980.91;;;9.83;99.34
18819;BME280;9537;45.594;9.294;2023-11-21T03:28:09;98978.44;;;9.81;99.78
18819;BME280;9537;45.594;9.294;2023-11-21T03:29:11;98975.63;;;9.83;99.77
18819;BME280;9537;45.594;9.294;2023-11-21T03:30:12;98972.16;;;9.82;99.62
18819;BME280;9537;45.594;9.294;2023-11-21T03:31:14;98972.97;;;9.83;99.58
18819;BME280;9537;45.594;9.294;2023-11-21T03:32:17;98975.44;;;9.84;99.62
18819;BME280;9537;45.594;9.294;2023-11-21T03:33:19;98971.97;;;9.84;99.48
18819;BME280;9537;45.594;9.294;2023-11-21T03:34:24;98968.34;;;9.85;99.52
18819;BME280;9537;45.594;9.294;2023-11-21T03:35:26;98968.34;;;9.85;99.78
18819;BME280;9537;45.594;9.294;2023-11-21T03:36:28;98964.91;;;9.84;99.19
18819;BME280;9537;45.594;9.294;2023-11-21T03:37:30;98963.06;;;9.85;99.41
18819;BME280;9537;45.594;9.294;2023-11-21T03:38:31;98957.78;;;9.85;99.27
18819;BME280;9537;45.594;9.294;2023-11-21T03:39:31;98958.59;;;9.85;99.04
18819;BME280;9537;45.594;9.294;2023-11-21T03:40:35;98954.16;;;9.86;98.92
18819;BME280;9537;45.594;9.294;2023-11-21T03:41:36;98966.53;;;9.85;99.22
18819;BME280;9537;45.594;9.294;2023-11-21T03:42:37;98959.41;;;9.86;99.19
18819;BME280;9537;45.594;9.294;2023-11-21T03:43:38;98967.16;;;9.87;98.88
18819;BME280;9537;45.594;9.294;2023-11-21T03:44:39;98960.22;;;9.86;99.36
18819;BME280;9537;45.594;9.294;2023-11-21T03:45:41;98959.41;;;9.86;99.27
18819;BME280;9537;45.594;9.294;2023-11-21T03:46:41;98966.31;;;9.87;99.07
18819;BME280;9537;45.594;9.294;2023-11-21T03:47:43;98962.88;;;9.86;99.09
18819;BME280;9537;45.594;9.294;2023-11-21T03:48:44;98958.41;;;9.87;99.30
18819;BME280;9537;45.594;9.294;2023-11-21T03:49:46;98966.31;;;9.87;99.26
18819;BME280;9537;45.594;9.294;2023-11-21T03:50:47;98967.16;;;9.87;99.16
18819;BME280;9537;45.594;9.294;2023-11-21T03:51:48;98961.88;;;9.87;99.14
18819;BME280;9537;45.594;9.294;2023-11-21T03:52:50;98964.53;;;9.87;99.39
18819;BME280;9537;45.594;9.294;2023-11-21T03:53:50;98966.31;;;9.87;99.36
18819;BME280;9537;45.594;9.294;2023-11-21T03:54:52;98968.16;;;9.86;99.37
18819;BME280;9537;45.594;9.294;2023-11-21T03:55:54;98968.16;;;9.86;99.52
18819;BME280;9537;45.594;9.294;2023-11-21T03:56:56;98972.44;;;9.87;99.71
18819;BME280;9537;45.594;9.294;2023-11-21T03:57:57;98971.59;;;9.87;99.94
18819;BME280;9537;45.594;9.294;2023-11-21T03:58:59;98967.97;;;9.88;100.00
18819;BME280;9537;45.594;9.294;2023-11-21T03:59:59;98967.97;;;9.88;100.00
18819;BME280;9537;45.594;9.294;2023-11-21T04:01:01;98967.97;;;9.88;100.00
18819;BME280;9537;45.594;9.294;2023-11-21T04:02:02;98971.59;;;9.87;100.00
18819;BME280;9537;45.594;9.294;2023-11-21T04:03:04;98967.34;;;9.86;100.00
18819;BME280;9537;45.594;9.294;2023-11-21T04:04:05;98964.53;;;9.87;100.00
18819;BME280;9537;45.594;9.294;2023-11-21T04:05:07;98966.97;;;9.89;100.00
18819;BME280;9537;45.594;9.294;2023-11-21T04:06:08;98969.59;;;9.89;100.00
18819;BME280;9537;45.594;9.294;2023-11-21T04:07:10;98962.69;;;9.88;100.00
18819;BME280;9537;45.594;9.294;2023-11-21T04:08:13;98955.59;;;9.88;100.00
18819;BME280;9537;45.594;9.294;2023-11-21T04:09:14;98958.25;;;9.88;100.00
18819;BME280;9537;45.594;9.294;2023-11-21T04:10:15;98952.97;;;9.88;100.00
18819;BME280;9537;45.594;9.294;2023-11-21T04:11:18;98956.63;;;9.87;100.00
18819;BME280;9537;45.594;9.294;2023-11-21T04:12:19;98952.31;;;9.86;100.00
18819;BME280;9537;45.594;9.294;2023-11-21T04:13:21;98953.97;;;9.87;100.00
18819;BME280;9537;45.594;9.294;2023-11-21T04:14:22;98947.84;;;9.87;100.00
18819;BME280;9537;45.594;9.294;2023-11-21T04:15:24;98949.50;;;9.88;100.00
18819;BME280;9537;45.594;9.294;2023-11-21T04:16:25;98950.88;;;9.84;100.00
18819;BME280;9537;45.594;9.294;2023-11-21T04:17:27;98947.25;;;9.85;100.00
18819;BME280;9537;45.594;9.294;2023-11-21T04:18:31;98950.06;;;9.83;100.00
18819;BME280;9537;45.594;9.294;2023-11-21T04:19:32;98949.41;;;9.81;100.00
18819;BME280;9537;45.594;9.294;2023-11-21T04:20:34;98950.44;;;9.80;100.00
18819;BME280;9537;45.594;9.294;2023-11-21T04:21:35;98956.72;;;9.79;100.00
18819;BME280;9537;45.594;9.294;2023-11-21T04:22:37;98950.63;;;9.79;100.00
18819;BME280;9537;45.594;9.294;2023-11-21T04:23:42;98948.00;;;9.79;100.00
18819;BME280;9537;45.594;9.294;2023-11-21T04:24:44;98952.25;;;9.80;100.00
18819;BME280;9537;45.594;9.294;2023-11-21T04:25:44;98950.44;;;9.80;100.00
18819;BME280;9537;45.594;9.294;2023-11-21T04:26:46;98946.16;;;9.79;100.00
18819;BME280;9537;45.594;9.294;2023-11-21T04:27:48;98945.53;;;9.77;100.00
18819;BME280;9537;45.594;9.294;2023-11-21T04:28:49;98946.34;;;9.78;100.00
18819;BME280;9537;45.594;9.294;2023-11-21T04:29:51;98946.34;;;9.78;100.00
18819;BME280;9537;45.594;9.294;2023-11-21T04:30:52;98945.53;;;9.77;100.00
18819;BME280;9537;45.594;9.294;2023-11-21T04:31:54;98945.34;;;9.79;100.00
18819;BME280;9537;45.594;9.294;2023-11-21T04:32:54;98942.72;;;9.79;100.00
18819;BME280;9537;45.594;9.294;2023-11-21T04:33:55;98944.50;;;9.78;100.00
18819;BME280;9537;45.594;9.294;2023-11-21T04:34:57;98947.16;;;9.78;100.00
18819;BME280;9537;45.594;9.294;2023-11-21T04:35:58;98947.16;;;9.78;100.00
18819;BME280;9537;45.594;9.294;2023-11-21T04:37:00;98947.16;;;9.78;100.00
18819;BME280;9537;45.594;9.294;2023-11-21T04:38:02;98949.78;;;9.78;100.00
18819;BME280;9537;45.594;9.294;2023-11-21T04:39:03;98946.34;;;9.78;100.00
18819;BME280;9537;45.594;9.294;2023-11-21T04:40:06;98948.00;;;9.79;100.00
18819;BME280;9537;45.594;9.294;2023-11-21T04:41:07;98948.59;;;9.81;100.00
18819;BME280;9537;45.594;9.294;2023-11-21T04:42:11;98944.34;;;9.80;100.00
18819;BME280;9537;45.594;9.294;2023-11-21T04:43:13;98943.69;;;9.78;100.00
18819;BME280;9537;45.594;9.294;2023-11-21T04:44:14;98938.25;;;9.79;100.00
18819;BME280;9537;45.594;9.294;2023-11-21T04:45:16;98939.06;;;9.80;100.00
18819;BME280;9537;45.594;9.294;2023-11-21T04:46:18;98940.91;;;9.79;100.00
18819;BME280;9537;45.594;9.294;2023-11-21T04:47:19;98942.50;;;9.80;100.00
18819;BME280;9537;45.594;9.294;2023-11-21T04:48:21;98943.31;;;9.81;100.00
18819;BME280;9537;45.594;9.294;2023-11-21T04:49:21;98938.88;;;9.81;100.00
18819;BME280;9537;45.594;9.294;2023-11-21T04:50:23;98941.50;;;9.81;100.00
18819;BME280;9537;45.594;9.294;2023-11-21T04:51:26;98941.50;;;9.81;100.00
18819;BME280;9537;45.594;9.294;2023-11-21T04:52:27;98944.97;;;9.82;100.00
18819;BME280;9537;45.594;9.294;2023-11-21T04:53:29;98942.34;;;9.82;100.00
18819;BME280;9537;45.594;9.294;2023-11-21T04:54:30;98942.34;;;9.82;99.85
18819;BME280;9537;45.594;9.294;2023-11-21T04:55:32;98944.13;;;9.81;100.00
18819;BME280;9537;45.594;9.294;2023-11-21T04:56:33;98944.13;;;9.81;99.98
18819;BME280;9537;45.594;9.294;2023-11-21T04:57:36;98948.59;;;9.81;99.57
18819;BME280;9537;45.594;9.294;2023-11-21T04:58:37;98943.31;;;9.81;99.59
18819;BME280;9537;45.594;9.294;2023-11-21T04:59:40;98950.44;;;9.80;99.13
18819;BME280;9537;45.594;9.294;2023-11-21T05:00:41;98951.25;;;9.81;99.33
18819;BME280;9537;45.594;9.294;2023-11-21T05:01:42;98953.88;;;9.81;99.13
18819;BME280;9537;45.594;9.294;2023-11-21T05:02:43;98953.06;;;9.80;99.03
18819;BME280;9537;45.594;9.294;2023-11-21T05:03:44;98952.06;;;9.81;98.98
18819;BME280;9537;45.594;9.294;2023-11-21T05:04:47;98952.06;;;9.81;99.49
18819;BME280;9537;45.594;9.294;2023-11-21T05:05:48;98957.69;;;9.78;99.79
18819;BME280;9537;45.594;9.294;2023-11-21T05:06:50;98962.38;;;9.76;100.00
18819;BME280;9537;45.594;9.294;2023-11-21T05:07:51;98962.00;;;9.79;100.00
18819;BME280;9537;45.594;9.294;2023-11-21T05:08:53;98958.72;;;9.77;100.00
18819;BME280;9537;45.594;9.294;2023-11-21T05:09:55;98962.38;;;9.76;100.00
18819;BME280;9537;45.594;9.294;2023-11-21T05:10:56;98958.28;;;9.74;100.00
18819;BME280;9537;45.594;9.294;2023-11-21T05:11:58;98965.38;;;9.73;100.00
18819;BME280;9537;45.594;9.294;2023-11-21T05:13:02;98972.28;;;9.74;100.00
18819;BME280;9537;45.594;9.294;2023-11-21T05:14:10;98957.47;;;9.73;100.00
18819;BME280;9537;45.594;9.294;2023-11-21T05:15:14;98963.72;;;9.72;100.00
18819;BME280;9537;45.594;9.294;2023-11-21T05:16:15;98964.72;;;9.71;100.00
18819;BME280;9537;45.594;9.294;2023-11-21T05:17:17;98964.72;;;9.71;100.00
18819;BME280;9537;45.594;9.294;2023-11-21T05:18:18;98964.53;;;9.73;100.00
18819;BME280;9537;45.594;9.294;2023-11-21T05:19:20;98970.66;;;9.73;100.00
18819;BME280;9537;45.594;9.294;2023-11-21T05:20:21;98967.00;;;9.74;100.00
18819;BME280;9537;45.594;9.294;2023-11-21T05:21:24;98970.28;;;9.76;100.00
18819;BME280;9537;45.594;9.294;2023-11-21T05:22:25;98970.44;;;9.75;100.00
18819;BME280;9537;45.594;9.294;2023-11-21T05:23:25;98967.63;;;9.76;100.00
18819;BME280;9537;45.594;9.294;2023-11-21T05:24:27;98964.16;;;9.76;100.00
18819;BME280;9537;45.594;9.294;2023-11-21T05:25:29;98962.38;;;9.76;100.00
18819;BME280;9537;45.594;9.294;2023-11-21T05:26:30;98967.44;;;9.78;100.00
18819;BME280;9537;45.594;9.294;2023-11-21T05:27:31;98960.53;;;9.77;100.00
18819;BME280;9537;45.594;9.294;2023-11-21T05:28:35;98959.53;;;9.78;100.00
18819;BME280;9537;45.594;9.294;2023-11-21T05:29:35;98961.34;;;9.77;100.00
18819;BME280;9537;45.594;9.294;2023-11-21T05:30:38;98958.53;;;9.79;100.00
18819;BME280;9537;45.594;9.294;2023-11-21T05:31:39;98950.63;;;9.79;100.00
18819;BME280;9537;45.594;9.294;2023-11-21T05:32:41;98953.25;;;9.79;100.00
18819;BME280;9537;45.594;9.294;2023-11-21T05:33:43;98954.88;;;9.80;100.00
18819;BME280;9537;45.594;9.294;2023-11-21T05:34:45;98955.69;;;9.80;100.00
18819;BME280;9537;45.594;9.294;2023-11-21T05:35:45;98953.44;;;9.77;100.00